sensor_id;sensor_type;location;lat;lon;timestamp;P1;durP1;ratioP1;P2;durP2;ratioP2
44428;SDS011;30134;47.866;-4.222;2023-07-29T00:00:57;4.07;;;1.50;;
44428;SDS011;30134;47.866;-4.222;2023-07-29T00:03:23;4.28;;;1.58;;
44428;SDS011;30134;47.866;-4.222;2023-07-29T00:05:49;7.07;;;1.77;;
44428;SDS011;30134;47.866;-4.222;2023-07-29T00:08:15;3.67;;;1.40;;
44428;SDS011;30134;47.866;-4.222;2023-07-29T00:10:41;5.85;;;1.55;;
44428;SDS011;30134;47.866;-4.222;2023-07-29T00:13:07;4.18;;;1.67;;
44428;SDS011;30134;47.866;-4.222;2023-07-29T00:15:33;4.22;;;1.60;;
44428;SDS011;30134;47.866;-4.222;2023-07-29T00:17:59;4.45;;;1.40;;
44428;SDS011;30134;47.866;-4.222;2023-07-29T00:20:25;3.78;;;1.50;;
44428;SDS011;30134;47.866;-4.222;2023-07-29T00:22:51;4.18;;;1.60;;
44428;SDS011;30134;47.866;-4.222;2023-07-29T00:25:19;6.25;;;2.15;;
44428;SDS011;30134;47.866;-4.222;2023-07-29T00:27:46;2.35;;;1.30;;
44428;SDS011;30134;47.866;-4.222;2023-07-29T00:30:13;4.13;;;1.40;;
44428;SDS011;30134;47.866;-4.222;2023-07-29T00:32:39;4.03;;;1.63;;
44428;SDS011;30134;47.866;-4.222;2023-07-29T00:35:05;5.47;;;1.70;;
44428;SDS011;30134;47.866;-4.222;2023-07-29T00:37:34;4.82;;;1.40;;
44428;SDS011;30134;47.866;-4.222;2023-07-29T00:40:02;4.78;;;1.60;;
44428;SDS011;30134;47.866;-4.222;2023-07-29T00:42:50;3.55;;;1.60;;
44428;SDS011;30134;47.866;-4.222;2023-07-29T00:45:16;1.80;;;1.10;;
44428;SDS011;30134;47.866;-4.222;2023-07-29T00:47:45;4.78;;;1.35;;
44428;SDS011;30134;47.866;-4.222;2023-07-29T00:50:12;2.53;;;1.23;;
44428;SDS011;30134;47.866;-4.222;2023-07-29T00:52:39;4.82;;;1.60;;
44428;SDS011;30134;47.866;-4.222;2023-07-29T00:55:06;3.25;;;1.25;;
44428;SDS011;30134;47.866;-4.222;2023-07-29T00:57:33;2.90;;;1.38;;
44428;SDS011;30134;47.866;-4.222;2023-07-29T01:00:00;4.93;;;1.35;;
44428;SDS011;30134;47.866;-4.222;2023-07-29T01:02:29;2.83;;;1.40;;
44428;SDS011;30134;47.866;-4.222;2023-07-29T01:04:57;3.42;;;1.30;;
44428;SDS011;30134;47.866;-4.222;2023-07-29T01:07:38;4.63;;;1.50;;
44428;SDS011;30134;47.866;-4.222;2023-07-29T01:13:13;5.70;;;1.20;;
44428;SDS011;30134;47.866;-4.222;2023-07-29T01:16:23;3.08;;;1.23;;
44428;SDS011;30134;47.866;-4.222;2023-07-29T01:18:57;5.07;;;1.65;;
44428;SDS011;30134;47.866;-4.222;2023-07-29T01:21:30;3.55;;;1.50;;
44428;SDS011;30134;47.866;-4.222;2023-07-29T01:24:00;3.05;;;1.20;;
44428;SDS011;30134;47.866;-4.222;2023-07-29T01:26:26;3.65;;;1.40;;
44428;SDS011;30134;47.866;-4.222;2023-07-29T01:28:54;4.50;;;1.25;;
44428;SDS011;30134;47.866;-4.222;2023-07-29T01:31:33;2.97;;;1.50;;
44428;SDS011;30134;47.866;-4.222;2023-07-29T01:36:57;3.22;;;1.55;;
44428;SDS011;30134;47.866;-4.222;2023-07-29T01:39:27;3.00;;;1.38;;
44428;SDS011;30134;47.866;-4.222;2023-07-29T01:41:57;4.03;;;1.27;;
44428;SDS011;30134;47.866;-4.222;2023-07-29T01:44:23;2.75;;;1.27;;
44428;SDS011;30134;47.866;-4.222;2023-07-29T01:46:51;2.08;;;1.10;;
44428;SDS011;30134;47.866;-4.222;2023-07-29T01:49:17;2.80;;;1.58;;
44428;SDS011;30134;47.866;-4.222;2023-07-29T01:51:43;3.42;;;1.50;;
44428;SDS011;30134;47.866;-4.222;2023-07-29T01:54:09;2.65;;;1.20;;
44428;SDS011;30134;47.866;-4.222;2023-07-29T01:56:34;2.72;;;1.30;;
44428;SDS011;30134;47.866;-4.222;2023-07-29T01:59:00;3.03;;;1.38;;
44428;SDS011;30134;47.866;-4.222;2023-07-29T02:01:27;4.20;;;1.42;;
44428;SDS011;30134;47.866;-4.222;2023-07-29T02:03:53;3.00;;;1.30;;
44428;SDS011;30134;47.866;-4.222;2023-07-29T02:06:22;2.63;;;1.42;;
44428;SDS011;30134;47.866;-4.222;2023-07-29T02:08:48;12.35;;;7.88;;
44428;SDS011;30134;47.866;-4.222;2023-07-29T02:11:14;24.02;;;15.63;;
44428;SDS011;30134;47.866;-4.222;2023-07-29T02:13:40;28.38;;;19.23;;
44428;SDS011;30134;47.866;-4.222;2023-07-29T02:16:07;33.58;;;22.77;;
44428;SDS011;30134;47.866;-4.222;2023-07-29T02:18:33;40.92;;;26.20;;
44428;SDS011;30134;47.866;-4.222;2023-07-29T02:20:59;38.92;;;26.58;;
44428;SDS011;30134;47.866;-4.222;2023-07-29T02:23:25;40.15;;;28.92;;
44428;SDS011;30134;47.866;-4.222;2023-07-29T02:25:54;44.85;;;30.42;;
44428;SDS011;30134;47.866;-4.222;2023-07-29T02:28:20;45.13;;;32.08;;
44428;SDS011;30134;47.866;-4.222;2023-07-29T02:30:46;46.25;;;33.15;;
44428;SDS011;30134;47.866;-4.222;2023-07-29T02:33:32;45.30;;;31.15;;
44428;SDS011;30134;47.866;-4.222;2023-07-29T02:35:58;44.67;;;30.83;;
44428;SDS011;30134;47.866;-4.222;2023-07-29T02:38:24;43.05;;;29.85;;
44428;SDS011;30134;47.866;-4.222;2023-07-29T02:40:50;43.10;;;31.23;;
44428;SDS011;30134;47.866;-4.222;2023-07-29T02:43:16;41.08;;;28.88;;
44428;SDS011;30134;47.866;-4.222;2023-07-29T02:45:50;40.20;;;27.27;;
44428;SDS011;30134;47.866;-4.222;2023-07-29T02:48:30;38.20;;;27.50;;
44428;SDS011;30134;47.866;-4.222;2023-07-29T02:50:56;36.15;;;25.85;;
44428;SDS011;30134;47.866;-4.222;2023-07-29T02:53:22;32.22;;;24.58;;
44428;SDS011;30134;47.866;-4.222;2023-07-29T02:55:49;34.63;;;24.40;;
44428;SDS011;30134;47.866;-4.222;2023-07-29T02:58:15;32.88;;;22.52;;
44428;SDS011;30134;47.866;-4.222;2023-07-29T03:00:41;26.63;;;20.75;;
44428;SDS011;30134;47.866;-4.222;2023-07-29T03:03:09;28.65;;;19.75;;
44428;SDS011;30134;47.866;-4.222;2023-07-29T03:05:35;27.85;;;19.85;;
44428;SDS011;30134;47.866;-4.222;2023-07-29T03:08:03;25.45;;;18.90;;
44428;SDS011;30134;47.866;-4.222;2023-07-29T03:10:29;23.13;;;17.35;;
44428;SDS011;30134;47.866;-4.222;2023-07-29T03:12:55;22.65;;;15.65;;
44428;SDS011;30134;47.866;-4.222;2023-07-29T03:15:24;23.38;;;16.02;;
44428;SDS011;30134;47.866;-4.222;2023-07-29T03:17:51;20.70;;;15.57;;
44428;SDS011;30134;47.866;-4.222;2023-07-29T03:20:18;18.27;;;13.55;;
44428;SDS011;30134;47.866;-4.222;2023-07-29T03:22:51;18.25;;;13.77;;
44428;SDS011;30134;47.866;-4.222;2023-07-29T03:25:17;17.70;;;12.93;;
44428;SDS011;30134;47.866;-4.222;2023-07-29T03:27:43;18.55;;;13.02;;
44428;SDS011;30134;47.866;-4.222;2023-07-29T03:30:09;15.95;;;11.18;;
44428;SDS011;30134;47.866;-4.222;2023-07-29T03:32:35;12.20;;;9.73;;
44428;SDS011;30134;47.866;-4.222;2023-07-29T03:35:06;14.15;;;10.40;;
44428;SDS011;30134;47.866;-4.222;2023-07-29T03:37:33;14.90;;;9.80;;
44428;SDS011;30134;47.866;-4.222;2023-07-29T03:39:59;14.23;;;9.68;;
44428;SDS011;30134;47.866;-4.222;2023-07-29T03:42:24;12.77;;;8.20;;
44428;SDS011;30134;47.866;-4.222;2023-07-29T03:44:50;12.50;;;8.75;;
44428;SDS011;30134;47.866;-4.222;2023-07-29T03:47:16;13.02;;;7.90;;
44428;SDS011;30134;47.866;-4.222;2023-07-29T03:49:42;10.30;;;7.45;;
44428;SDS011;30134;47.866;-4.222;2023-07-29T03:52:08;11.25;;;7.50;;
44428;SDS011;30134;47.866;-4.222;2023-07-29T03:54:35;8.35;;;6.22;;
44428;SDS011;30134;47.866;-4.222;2023-07-29T03:57:04;9.02;;;6.28;;
44428;SDS011;30134;47.866;-4.222;2023-07-29T03:59:30;8.68;;;6.20;;
44428;SDS011;30134;47.866;-4.222;2023-07-29T04:01:56;9.95;;;6.15;;
44428;SDS011;30134;47.866;-4.222;2023-07-29T04:04:22;8.55;;;5.72;;
44428;SDS011;30134;47.866;-4.222;2023-07-29T04:06:48;8.82;;;5.70;;
44428;SDS011;30134;47.866;-4.222;2023-07-29T04:09:14;7.65;;;5.00;;
44428;SDS011;30134;47.866;-4.222;2023-07-29T04:11:40;8.93;;;5.25;;
44428;SDS011;30134;47.866;-4.222;2023-07-29T04:14:06;7.78;;;5.07;;
44428;SDS011;30134;47.866;-4.222;2023-07-29T04:16:32;5.03;;;4.40;;
44428;SDS011;30134;47.866;-4.222;2023-07-29T04:18:58;5.97;;;4.40;;
44428;SDS011;30134;47.866;-4.222;2023-07-29T04:21:24;6.80;;;4.40;;
44428;SDS011;30134;47.866;-4.222;2023-07-29T04:23:50;6.18;;;4.47;;
44428;SDS011;30134;47.866;-4.222;2023-07-29T04:26:17;6.60;;;4.47;;
44428;SDS011;30134;47.866;-4.222;2023-07-29T04:28:43;6.35;;;4.05;;
44428;SDS011;30134;47.866;-4.222;2023-07-29T04:31:09;7.07;;;4.40;;
44428;SDS011;30134;47.866;-4.222;2023-07-29T04:33:35;5.25;;;3.90;;
44428;SDS011;30134;47.866;-4.222;2023-07-29T04:36:01;6.05;;;3.40;;
44428;SDS011;30134;47.866;-4.222;2023-07-29T04:38:30;5.28;;;3.30;;
44428;SDS011;30134;47.866;-4.222;2023-07-29T04:40:58;5.05;;;2.85;;
44428;SDS011;30134;47.866;-4.222;2023-07-29T04:43:28;4.40;;;2.70;;
44428;SDS011;30134;47.866;-4.222;2023-07-29T04:45:56;4.28;;;2.88;;
44428;SDS011;30134;47.866;-4.222;2023-07-29T04:48:22;4.93;;;3.30;;
44428;SDS011;30134;47.866;-4.222;2023-07-29T04:50:48;5.05;;;2.80;;
44428;SDS011;30134;47.866;-4.222;2023-07-29T04:53:14;3.28;;;2.53;;
44428;SDS011;30134;47.866;-4.222;2023-07-29T04:55:43;4.45;;;2.55;;
44428;SDS011;30134;47.866;-4.222;2023-07-29T04:58:09;4.63;;;2.78;;
44428;SDS011;30134;47.866;-4.222;2023-07-29T05:00:35;5.63;;;2.88;;
44428;SDS011;30134;47.866;-4.222;2023-07-29T05:03:01;4.03;;;2.40;;
44428;SDS011;30134;47.866;-4.222;2023-07-29T05:05:27;4.25;;;2.67;;
44428;SDS011;30134;47.866;-4.222;2023-07-29T05:07:53;4.97;;;2.47;;
44428;SDS011;30134;47.866;-4.222;2023-07-29T05:10:22;4.22;;;2.70;;
44428;SDS011;30134;47.866;-4.222;2023-07-29T05:12:48;5.45;;;3.05;;
44428;SDS011;30134;47.866;-4.222;2023-07-29T05:15:14;3.75;;;2.50;;
44428;SDS011;30134;47.866;-4.222;2023-07-29T05:17:40;4.68;;;2.50;;
44428;SDS011;30134;47.866;-4.222;2023-07-29T05:20:06;3.70;;;2.50;;
44428;SDS011;30134;47.866;-4.222;2023-07-29T05:22:33;4.88;;;2.45;;
44428;SDS011;30134;47.866;-4.222;2023-07-29T05:24:59;3.88;;;2.30;;
44428;SDS011;30134;47.866;-4.222;2023-07-29T05:27:25;4.03;;;2.80;;
44428;SDS011;30134;47.866;-4.222;2023-07-29T05:29:51;3.58;;;2.35;;
44428;SDS011;30134;47.866;-4.222;2023-07-29T05:32:18;3.67;;;2.22;;
44428;SDS011;30134;47.866;-4.222;2023-07-29T05:34:44;4.15;;;2.50;;
44428;SDS011;30134;47.866;-4.222;2023-07-29T05:37:10;2.95;;;2.17;;
44428;SDS011;30134;47.866;-4.222;2023-07-29T05:39:36;4.28;;;2.47;;
44428;SDS011;30134;47.866;-4.222;2023-07-29T05:42:02;3.85;;;2.20;;
44428;SDS011;30134;47.866;-4.222;2023-07-29T05:44:29;4.05;;;2.42;;
44428;SDS011;30134;47.866;-4.222;2023-07-29T05:46:56;3.70;;;2.08;;
44428;SDS011;30134;47.866;-4.222;2023-07-29T05:49:22;4.97;;;2.40;;
44428;SDS011;30134;47.866;-4.222;2023-07-29T05:51:48;3.75;;;2.03;;
44428;SDS011;30134;47.866;-4.222;2023-07-29T05:54:17;6.10;;;2.30;;
44428;SDS011;30134;47.866;-4.222;2023-07-29T05:56:44;3.80;;;2.20;;
44428;SDS011;30134;47.866;-4.222;2023-07-29T05:59:10;4.07;;;2.38;;
44428;SDS011;30134;47.866;-4.222;2023-07-29T06:01:36;3.90;;;1.98;;
44428;SDS011;30134;47.866;-4.222;2023-07-29T06:04:02;4.63;;;2.20;;
44428;SDS011;30134;47.866;-4.222;2023-07-29T06:06:28;5.22;;;2.30;;
44428;SDS011;30134;47.866;-4.222;2023-07-29T06:09:01;3.20;;;1.83;;
44428;SDS011;30134;47.866;-4.222;2023-07-29T06:11:27;3.28;;;2.03;;
44428;SDS011;30134;47.866;-4.222;2023-07-29T06:13:53;3.70;;;2.08;;
44428;SDS011;30134;47.866;-4.222;2023-07-29T06:16:19;4.47;;;2.13;;
44428;SDS011;30134;47.866;-4.222;2023-07-29T06:18:45;3.85;;;2.13;;
44428;SDS011;30134;47.866;-4.222;2023-07-29T06:21:11;4.65;;;2.28;;
44428;SDS011;30134;47.866;-4.222;2023-07-29T06:23:42;3.80;;;1.77;;
44428;SDS011;30134;47.866;-4.222;2023-07-29T06:26:09;4.25;;;2.38;;
44428;SDS011;30134;47.866;-4.222;2023-07-29T06:28:35;4.45;;;2.17;;
44428;SDS011;30134;47.866;-4.222;2023-07-29T06:31:01;3.42;;;1.90;;
44428;SDS011;30134;47.866;-4.222;2023-07-29T06:33:27;3.75;;;2.20;;
44428;SDS011;30134;47.866;-4.222;2023-07-29T06:35:53;3.95;;;1.92;;
44428;SDS011;30134;47.866;-4.222;2023-07-29T06:38:18;4.90;;;2.20;;
44428;SDS011;30134;47.866;-4.222;2023-07-29T06:40:47;3.47;;;1.70;;
44428;SDS011;30134;47.866;-4.222;2023-07-29T06:43:14;5.28;;;1.95;;
44428;SDS011;30134;47.866;-4.222;2023-07-29T06:45:39;3.28;;;1.60;;
44428;SDS011;30134;47.866;-4.222;2023-07-29T06:48:06;3.53;;;2.00;;
44428;SDS011;30134;47.866;-4.222;2023-07-29T06:50:32;4.25;;;2.25;;
44428;SDS011;30134;47.866;-4.222;2023-07-29T06:52:58;3.47;;;1.92;;
44428;SDS011;30134;47.866;-4.222;2023-07-29T06:55:24;3.78;;;1.95;;
44428;SDS011;30134;47.866;-4.222;2023-07-29T06:57:50;5.43;;;1.95;;
44428;SDS011;30134;47.866;-4.222;2023-07-29T07:00:17;3.33;;;2.08;;
44428;SDS011;30134;47.866;-4.222;2023-07-29T07:02:43;3.25;;;1.77;;
44428;SDS011;30134;47.866;-4.222;2023-07-29T07:05:09;4.25;;;2.00;;
44428;SDS011;30134;47.866;-4.222;2023-07-29T07:07:35;2.90;;;1.80;;
44428;SDS011;30134;47.866;-4.222;2023-07-29T07:10:03;4.97;;;1.98;;
44428;SDS011;30134;47.866;-4.222;2023-07-29T07:12:29;3.58;;;2.00;;
44428;SDS011;30134;47.866;-4.222;2023-07-29T07:14:55;3.78;;;1.80;;
44428;SDS011;30134;47.866;-4.222;2023-07-29T07:17:22;2.72;;;1.67;;
44428;SDS011;30134;47.866;-4.222;2023-07-29T07:19:48;7.00;;;1.80;;
44428;SDS011;30134;47.866;-4.222;2023-07-29T07:22:15;3.80;;;1.83;;
44428;SDS011;30134;47.866;-4.222;2023-07-29T07:24:42;3.55;;;2.00;;
44428;SDS011;30134;47.866;-4.222;2023-07-29T07:27:08;4.88;;;2.05;;
44428;SDS011;30134;47.866;-4.222;2023-07-29T07:29:34;5.20;;;2.10;;
44428;SDS011;30134;47.866;-4.222;2023-07-29T07:32:00;4.25;;;1.80;;
44428;SDS011;30134;47.866;-4.222;2023-07-29T07:34:26;3.95;;;2.00;;
44428;SDS011;30134;47.866;-4.222;2023-07-29T07:36:52;5.45;;;2.20;;
44428;SDS011;30134;47.866;-4.222;2023-07-29T07:39:18;4.65;;;1.98;;
44428;SDS011;30134;47.866;-4.222;2023-07-29T07:41:45;4.68;;;2.10;;
44428;SDS011;30134;47.866;-4.222;2023-07-29T07:44:11;6.53;;;2.30;;
44428;SDS011;30134;47.866;-4.222;2023-07-29T07:46:40;5.43;;;2.00;;
44428;SDS011;30134;47.866;-4.222;2023-07-29T07:49:07;5.97;;;2.22;;
44428;SDS011;30134;47.866;-4.222;2023-07-29T07:51:33;5.15;;;2.28;;
44428;SDS011;30134;47.866;-4.222;2023-07-29T07:53:59;5.50;;;1.98;;
44428;SDS011;30134;47.866;-4.222;2023-07-29T07:56:24;2.88;;;1.60;;
44428;SDS011;30134;47.866;-4.222;2023-07-29T07:58:51;4.40;;;2.10;;
44428;SDS011;30134;47.866;-4.222;2023-07-29T08:01:16;4.57;;;1.95;;
44428;SDS011;30134;47.866;-4.222;2023-07-29T08:03:42;4.68;;;2.05;;
44428;SDS011;30134;47.866;-4.222;2023-07-29T08:06:08;3.78;;;1.90;;
44428;SDS011;30134;47.866;-4.222;2023-07-29T08:08:37;5.65;;;1.80;;
44428;SDS011;30134;47.866;-4.222;2023-07-29T08:11:03;4.18;;;1.95;;
44428;SDS011;30134;47.866;-4.222;2023-07-29T08:13:29;3.83;;;1.80;;
44428;SDS011;30134;47.866;-4.222;2023-07-29T08:15:55;3.40;;;1.80;;
44428;SDS011;30134;47.866;-4.222;2023-07-29T08:18:21;3.60;;;1.90;;
44428;SDS011;30134;47.866;-4.222;2023-07-29T08:20:57;5.25;;;2.30;;
44428;SDS011;30134;47.866;-4.222;2023-07-29T08:23:33;3.47;;;2.03;;
44428;SDS011;30134;47.866;-4.222;2023-07-29T08:26:01;5.35;;;1.98;;
44428;SDS011;30134;47.866;-4.222;2023-07-29T08:28:31;5.25;;;2.00;;
44428;SDS011;30134;47.866;-4.222;2023-07-29T08:30:59;4.38;;;2.15;;
44428;SDS011;30134;47.866;-4.222;2023-07-29T08:33:25;3.80;;;2.00;;
44428;SDS011;30134;47.866;-4.222;2023-07-29T08:35:52;8.80;;;2.45;;
44428;SDS011;30134;47.866;-4.222;2023-07-29T08:38:19;3.97;;;2.10;;
44428;SDS011;30134;47.866;-4.222;2023-07-29T08:40:48;7.18;;;2.03;;
44428;SDS011;30134;47.866;-4.222;2023-07-29T08:43:31;4.65;;;1.80;;
44428;SDS011;30134;47.866;-4.222;2023-07-29T08:45:59;4.82;;;2.42;;
44428;SDS011;30134;47.866;-4.222;2023-07-29T08:48:40;8.52;;;2.70;;
44428;SDS011;30134;47.866;-4.222;2023-07-29T08:51:07;8.32;;;3.13;;
44428;SDS011;30134;47.866;-4.222;2023-07-29T08:53:35;5.90;;;2.42;;
44428;SDS011;30134;47.866;-4.222;2023-07-29T08:56:02;5.03;;;2.45;;
44428;SDS011;30134;47.866;-4.222;2023-07-29T08:58:30;9.73;;;2.75;;
44428;SDS011;30134;47.866;-4.222;2023-07-29T09:00:57;11.65;;;3.15;;
44428;SDS011;30134;47.866;-4.222;2023-07-29T09:03:23;6.82;;;2.38;;
44428;SDS011;30134;47.866;-4.222;2023-07-29T09:05:49;10.10;;;4.13;;
44428;SDS011;30134;47.866;-4.222;2023-07-29T09:08:16;14.45;;;4.10;;
44428;SDS011;30134;47.866;-4.222;2023-07-29T09:10:43;12.57;;;3.90;;
44428;SDS011;30134;47.866;-4.222;2023-07-29T09:13:15;13.02;;;3.40;;
44428;SDS011;30134;47.866;-4.222;2023-07-29T09:15:41;14.15;;;3.30;;
44428;SDS011;30134;47.866;-4.222;2023-07-29T09:18:11;17.48;;;4.35;;
44428;SDS011;30134;47.866;-4.222;2023-07-29T09:20:41;15.40;;;3.38;;
44428;SDS011;30134;47.866;-4.222;2023-07-29T09:23:08;11.30;;;3.15;;
44428;SDS011;30134;47.866;-4.222;2023-07-29T09:25:35;15.50;;;3.15;;
44428;SDS011;30134;47.866;-4.222;2023-07-29T09:28:07;11.60;;;2.72;;
44428;SDS011;30134;47.866;-4.222;2023-07-29T09:30:39;15.40;;;3.50;;
44428;SDS011;30134;47.866;-4.222;2023-07-29T09:33:07;10.90;;;3.10;;
44428;SDS011;30134;47.866;-4.222;2023-07-29T09:35:35;12.18;;;2.67;;
44428;SDS011;30134;47.866;-4.222;2023-07-29T09:38:03;9.60;;;2.58;;
44428;SDS011;30134;47.866;-4.222;2023-07-29T09:40:37;10.80;;;2.72;;
44428;SDS011;30134;47.866;-4.222;2023-07-29T09:43:05;14.18;;;2.30;;
44428;SDS011;30134;47.866;-4.222;2023-07-29T09:45:36;11.88;;;3.10;;
44428;SDS011;30134;47.866;-4.222;2023-07-29T09:48:03;23.42;;;2.85;;
44428;SDS011;30134;47.866;-4.222;2023-07-29T09:50:34;17.02;;;2.90;;
44428;SDS011;30134;47.866;-4.222;2023-07-29T09:53:01;13.05;;;2.78;;
44428;SDS011;30134;47.866;-4.222;2023-07-29T09:55:28;14.60;;;2.70;;
44428;SDS011;30134;47.866;-4.222;2023-07-29T09:57:58;23.77;;;3.45;;
44428;SDS011;30134;47.866;-4.222;2023-07-29T10:00:30;19.52;;;3.28;;
44428;SDS011;30134;47.866;-4.222;2023-07-29T10:02:57;18.38;;;2.70;;
44428;SDS011;30134;47.866;-4.222;2023-07-29T10:05:27;16.52;;;2.85;;
44428;SDS011;30134;47.866;-4.222;2023-07-29T10:07:55;12.38;;;2.40;;
44428;SDS011;30134;47.866;-4.222;2023-07-29T10:10:22;10.40;;;3.13;;
44428;SDS011;30134;47.866;-4.222;2023-07-29T10:12:48;9.73;;;2.42;;
44428;SDS011;30134;47.866;-4.222;2023-07-29T10:15:15;11.43;;;2.75;;
44428;SDS011;30134;47.866;-4.222;2023-07-29T10:17:42;12.23;;;2.25;;
44428;SDS011;30134;47.866;-4.222;2023-07-29T10:20:11;9.38;;;2.72;;
44428;SDS011;30134;47.866;-4.222;2023-07-29T10:22:38;11.18;;;2.75;;
44428;SDS011;30134;47.866;-4.222;2023-07-29T10:25:21;9.02;;;2.42;;
44428;SDS011;30134;47.866;-4.222;2023-07-29T10:27:52;6.00;;;2.03;;
44428;SDS011;30134;47.866;-4.222;2023-07-29T10:30:24;11.05;;;2.75;;
44428;SDS011;30134;47.866;-4.222;2023-07-29T10:32:50;8.05;;;2.58;;
44428;SDS011;30134;47.866;-4.222;2023-07-29T10:35:18;8.75;;;2.10;;
44428;SDS011;30134;47.866;-4.222;2023-07-29T10:37:44;8.45;;;2.20;;
44428;SDS011;30134;47.866;-4.222;2023-07-29T10:40:11;7.00;;;2.35;;
44428;SDS011;30134;47.866;-4.222;2023-07-29T10:42:38;11.60;;;2.13;;
44428;SDS011;30134;47.866;-4.222;2023-07-29T10:45:24;6.07;;;1.80;;
44428;SDS011;30134;47.866;-4.222;2023-07-29T10:47:50;4.50;;;1.60;;
44428;SDS011;30134;47.866;-4.222;2023-07-29T10:50:17;4.25;;;1.40;;
44428;SDS011;30134;47.866;-4.222;2023-07-29T10:52:48;4.63;;;1.60;;
44428;SDS011;30134;47.866;-4.222;2023-07-29T10:55:30;5.03;;;1.50;;
44428;SDS011;30134;47.866;-4.222;2023-07-29T10:58:06;6.25;;;1.60;;
44428;SDS011;30134;47.866;-4.222;2023-07-29T11:03:09;4.22;;;1.90;;
44428;SDS011;30134;47.866;-4.222;2023-07-29T11:05:43;4.93;;;1.70;;
44428;SDS011;30134;47.866;-4.222;2023-07-29T11:13:37;6.50;;;1.65;;
44428;SDS011;30134;47.866;-4.222;2023-07-29T11:16:04;7.50;;;1.67;;
44428;SDS011;30134;47.866;-4.222;2023-07-29T11:18:31;4.55;;;1.30;;
44428;SDS011;30134;47.866;-4.222;2023-07-29T11:20:59;5.15;;;1.80;;
44428;SDS011;30134;47.866;-4.222;2023-07-29T11:23:28;17.35;;;1.90;;
44428;SDS011;30134;47.866;-4.222;2023-07-29T11:25:58;5.40;;;1.30;;
44428;SDS011;30134;47.866;-4.222;2023-07-29T11:28:25;4.32;;;1.02;;
44428;SDS011;30134;47.866;-4.222;2023-07-29T11:30:52;2.25;;;1.05;;
44428;SDS011;30134;47.866;-4.222;2023-07-29T11:33:26;2.97;;;1.10;;
44428;SDS011;30134;47.866;-4.222;2023-07-29T11:35:53;2.58;;;1.00;;
44428;SDS011;30134;47.866;-4.222;2023-07-29T11:38:20;2.88;;;1.48;;
44428;SDS011;30134;47.866;-4.222;2023-07-29T11:40:58;2.40;;;1.25;;
44428;SDS011;30134;47.866;-4.222;2023-07-29T11:43:25;1.55;;;0.77;;
44428;SDS011;30134;47.866;-4.222;2023-07-29T11:45:54;2.70;;;1.20;;
44428;SDS011;30134;47.866;-4.222;2023-07-29T11:48:31;2.92;;;0.93;;
44428;SDS011;30134;47.866;-4.222;2023-07-29T11:50:58;2.22;;;1.00;;
44428;SDS011;30134;47.866;-4.222;2023-07-29T11:53:28;2.38;;;0.98;;
44428;SDS011;30134;47.866;-4.222;2023-07-29T11:55:58;7.10;;;1.20;;
44428;SDS011;30134;47.866;-4.222;2023-07-29T11:58:24;8.82;;;1.25;;
44428;SDS011;30134;47.866;-4.222;2023-07-29T12:00:51;8.23;;;2.58;;
44428;SDS011;30134;47.866;-4.222;2023-07-29T12:03:17;6.07;;;3.05;;
44428;SDS011;30134;47.866;-4.222;2023-07-29T12:05:44;7.13;;;3.47;;
44428;SDS011;30134;47.866;-4.222;2023-07-29T12:08:10;6.90;;;2.08;;
44428;SDS011;30134;47.866;-4.222;2023-07-29T12:10:37;6.80;;;2.10;;
44428;SDS011;30134;47.866;-4.222;2023-07-29T12:13:03;3.28;;;1.70;;
44428;SDS011;30134;47.866;-4.222;2023-07-29T12:15:29;4.65;;;1.67;;
44428;SDS011;30134;47.866;-4.222;2023-07-29T12:17:55;6.15;;;1.75;;
44428;SDS011;30134;47.866;-4.222;2023-07-29T12:20:23;2.63;;;1.45;;
44428;SDS011;30134;47.866;-4.222;2023-07-29T12:22:53;3.97;;;1.70;;
44428;SDS011;30134;47.866;-4.222;2023-07-29T12:25:24;3.63;;;1.40;;
44428;SDS011;30134;47.866;-4.222;2023-07-29T12:27:51;3.60;;;1.52;;
44428;SDS011;30134;47.866;-4.222;2023-07-29T12:30:21;4.88;;;1.67;;
44428;SDS011;30134;47.866;-4.222;2023-07-29T12:32:49;6.57;;;2.28;;
44428;SDS011;30134;47.866;-4.222;2023-07-29T12:35:15;6.20;;;2.00;;
44428;SDS011;30134;47.866;-4.222;2023-07-29T12:37:42;4.85;;;1.70;;
44428;SDS011;30134;47.866;-4.222;2023-07-29T12:40:29;7.90;;;2.03;;
44428;SDS011;30134;47.866;-4.222;2023-07-29T12:42:54;4.28;;;1.70;;
44428;SDS011;30134;47.866;-4.222;2023-07-29T12:45:21;7.43;;;1.83;;
44428;SDS011;30134;47.866;-4.222;2023-07-29T12:47:52;4.57;;;1.70;;
44428;SDS011;30134;47.866;-4.222;2023-07-29T12:50:18;4.97;;;1.60;;
44428;SDS011;30134;47.866;-4.222;2023-07-29T12:52:44;7.63;;;1.92;;
44428;SDS011;30134;47.866;-4.222;2023-07-29T12:55:10;9.30;;;2.60;;
44428;SDS011;30134;47.866;-4.222;2023-07-29T12:57:39;7.35;;;1.92;;
44428;SDS011;30134;47.866;-4.222;2023-07-29T13:00:08;6.45;;;2.00;;
44428;SDS011;30134;47.866;-4.222;2023-07-29T13:02:34;8.75;;;2.13;;
44428;SDS011;30134;47.866;-4.222;2023-07-29T13:05:00;7.22;;;2.05;;
44428;SDS011;30134;47.866;-4.222;2023-07-29T13:07:26;8.52;;;2.10;;
44428;SDS011;30134;47.866;-4.222;2023-07-29T13:09:52;10.88;;;2.20;;
44428;SDS011;30134;47.866;-4.222;2023-07-29T13:12:18;9.27;;;2.20;;
44428;SDS011;30134;47.866;-4.222;2023-07-29T13:14:45;7.45;;;2.33;;
44428;SDS011;30134;47.866;-4.222;2023-07-29T13:17:11;11.00;;;2.45;;
44428;SDS011;30134;47.866;-4.222;2023-07-29T13:19:37;8.75;;;2.40;;
44428;SDS011;30134;47.866;-4.222;2023-07-29T13:22:03;8.60;;;2.70;;
44428;SDS011;30134;47.866;-4.222;2023-07-29T13:24:29;10.15;;;2.20;;
44428;SDS011;30134;47.866;-4.222;2023-07-29T13:26:55;6.57;;;2.53;;
44428;SDS011;30134;47.866;-4.222;2023-07-29T13:29:21;9.30;;;2.58;;
44428;SDS011;30134;47.866;-4.222;2023-07-29T13:31:49;11.02;;;2.50;;
44428;SDS011;30134;47.866;-4.222;2023-07-29T13:34:15;6.13;;;2.45;;
44428;SDS011;30134;47.866;-4.222;2023-07-29T13:36:41;15.00;;;2.65;;
44428;SDS011;30134;47.866;-4.222;2023-07-29T13:39:07;6.93;;;2.38;;
44428;SDS011;30134;47.866;-4.222;2023-07-29T13:41:33;9.80;;;2.40;;
44428;SDS011;30134;47.866;-4.222;2023-07-29T13:43:59;9.75;;;2.47;;
44428;SDS011;30134;47.866;-4.222;2023-07-29T13:46:25;10.70;;;2.53;;
44428;SDS011;30134;47.866;-4.222;2023-07-29T13:48:51;8.93;;;2.50;;
44428;SDS011;30134;47.866;-4.222;2023-07-29T13:51:17;8.82;;;2.83;;
44428;SDS011;30134;47.866;-4.222;2023-07-29T13:53:43;11.60;;;2.42;;
44428;SDS011;30134;47.866;-4.222;2023-07-29T13:56:09;7.70;;;2.30;;
44428;SDS011;30134;47.866;-4.222;2023-07-29T13:58:35;9.00;;;2.42;;
44428;SDS011;30134;47.866;-4.222;2023-07-29T14:01:01;10.98;;;2.80;;
44428;SDS011;30134;47.866;-4.222;2023-07-29T14:03:27;8.75;;;2.70;;
44428;SDS011;30134;47.866;-4.222;2023-07-29T14:05:53;13.18;;;2.63;;
44428;SDS011;30134;47.866;-4.222;2023-07-29T14:08:19;7.45;;;2.22;;
44428;SDS011;30134;47.866;-4.222;2023-07-29T14:10:45;6.25;;;2.10;;
44428;SDS011;30134;47.866;-4.222;2023-07-29T14:13:11;7.53;;;2.42;;
44428;SDS011;30134;47.866;-4.222;2023-07-29T14:15:37;8.05;;;2.30;;
44428;SDS011;30134;47.866;-4.222;2023-07-29T14:18:02;5.93;;;2.00;;
44428;SDS011;30134;47.866;-4.222;2023-07-29T14:20:28;9.40;;;2.58;;
44428;SDS011;30134;47.866;-4.222;2023-07-29T14:22:54;13.73;;;2.85;;
44428;SDS011;30134;47.866;-4.222;2023-07-29T14:25:20;16.05;;;2.85;;
44428;SDS011;30134;47.866;-4.222;2023-07-29T14:27:46;15.30;;;3.42;;
44428;SDS011;30134;47.866;-4.222;2023-07-29T14:30:12;12.63;;;2.72;;
44428;SDS011;30134;47.866;-4.222;2023-07-29T14:32:38;18.40;;;2.90;;
44428;SDS011;30134;47.866;-4.222;2023-07-29T14:35:04;9.85;;;2.35;;
44428;SDS011;30134;47.866;-4.222;2023-07-29T14:37:31;16.52;;;2.75;;
44428;SDS011;30134;47.866;-4.222;2023-07-29T14:39:57;12.75;;;3.20;;
44428;SDS011;30134;47.866;-4.222;2023-07-29T14:42:30;16.90;;;2.80;;
44428;SDS011;30134;47.866;-4.222;2023-07-29T14:44:56;17.17;;;3.80;;
44428;SDS011;30134;47.866;-4.222;2023-07-29T14:47:22;14.90;;;2.85;;